Airfield :
LOGIN :

Register | Disclaimer

   EN    FR    IT 

 










Legend :    VFR   Marginal VFR   IFR   Intensive IFR   Very Intensive IFR
Visi :
Ceiling :
>= 8 km
>= 3000ft
5 to 8 km
1000 to 3000 ft
1500m to 5 km
500 to 1000 ft
800 to 1500m
200 to 500 ft
< 800m
< 200 ft
Symbols :   Thunderstorms  Fog  Heavy snow  Heavy precipitations  Wind > 20 kt
SIGMETs :     Misc.  Thunderstorms  Icing  Turbulence  Mountain Waves  Volcanic Ashes






- Airport Elevation : 82 ft
- IATA code : AAR


EKAH - Aarhus Tirstrup

CURRENT METAR :
  • 221920Z AUTO 18001KT 1300NDV R10R///// R28L/P1500N BR NCD 12/09 Q1007

EXPIRED METARs :
  • 221850Z AUTO 18001KT 9999NDV NCD 12/09 Q1007
  • 221820Z AUTO 00000KT 9999NDV NCD 14/11 Q1007
  • 221750Z AUTO 16003KT 9999NDV NCD 15/11 Q1007
  • 221720Z AUTO 16002KT 9999NDV NCD 15/11 Q1007
  • 221650Z AUTO 17003KT 9999NDV NCD 16/11 Q1007

TAF AMD TAF EKAH
Valid from the 22 at 19:00 until the 23 at 18:00 UTC


221926Z 2219/2318 19005KT CAVOK
TEMPO 2219/2302 1200 BR
BECMG 2302/2304 0100 FG VV001
BECMG 2304/2306 9999 NSW SCT015
TEMPO 2314/2318 BKN012 FEW020CB



MET'MAP, your aeronautical weather chart ! - Copyright ORBIFLY December 2007 - Disclaimer

ORBIFLY MET'MAP TEAM :

Programming & Development : Alexandra Zaïnal
Concept & original design : Baudouin d'Aumeries
Assistance for programming : Marc-Olivier Méhu
Technical & hardware support : Manuel Goepfert

Contact : metmap@orbifly.com




SOURCES & CREDITS :

   NOAA